createdAt,value
2023-02-11T00:01:56.567Z,67155.38
2023-02-11T00:04:23.766Z,67162.91
2023-02-11T00:06:54.048Z,67174.06
2023-02-11T00:09:21.173Z,67168.13
2023-02-11T00:11:48.258Z,67168.31
2023-02-11T00:14:18.236Z,67164.59
2023-02-11T00:16:54.025Z,67166.63
2023-02-11T00:19:51.077Z,67173.72
2023-02-11T00:22:19.287Z,67180.47
2023-02-11T00:24:53.347Z,67185.38
2023-02-11T00:27:20.610Z,67194.59
2023-02-11T00:29:47.652Z,67198.84
2023-02-11T00:32:14.718Z,67206.53
2023-02-11T00:34:43.254Z,67206.53
2023-02-11T00:37:13.651Z,67227.09
2023-02-11T00:39:44.023Z,67215.53
2023-02-11T00:42:15.268Z,67210.69
2023-02-11T00:44:42.543Z,67220.00
2023-02-11T00:47:09.694Z,67225.44
2023-02-11T00:49:41.975Z,67218.31
2023-02-11T00:52:09.733Z,67209.34
2023-02-11T00:54:43.090Z,67211.38
2023-02-11T00:57:10.173Z,67209.53
2023-02-11T01:02:30.174Z,67221.50
2023-02-11T01:05:01.385Z,67220.22
2023-02-11T01:07:32.668Z,67222.63
2023-02-11T01:10:02.775Z,67209.34
2023-02-11T01:12:30.718Z,67221.16
2023-02-11T01:15:01.026Z,67215.72
2023-02-11T01:17:28.414Z,67224.50
2023-02-11T01:20:06.703Z,67245.31
2023-02-11T01:22:53.165Z,67246.22
2023-02-11T01:25:22.909Z,67244.94
2023-02-11T01:27:49.866Z,67256.91
2023-02-11T01:30:17.074Z,67249.47
2023-02-11T01:32:46.975Z,67260.28
2023-02-11T01:35:14.175Z,67265.00
2023-02-11T01:37:42.061Z,67263.72
2023-02-11T01:40:15.051Z,67270.41
2023-02-11T01:42:42.734Z,67263.50
2023-02-11T01:45:51.898Z,67280.53
2023-02-11T01:48:28.258Z,67277.91
2023-02-11T01:51:04.173Z,67283.53
2023-02-11T01:57:01.784Z,67289.38
2023-02-11T01:59:39.670Z,67296.13
2023-02-11T02:02:08.267Z,67296.69
2023-02-11T02:04:48.340Z,67307.19
2023-02-11T02:07:36.777Z,67309.22
2023-02-11T02:12:58.056Z,67309.97
2023-02-11T02:15:36.660Z,67313.34
2023-02-11T02:18:10.749Z,67323.47
2023-02-11T02:21:06.453Z,67332.50
2023-02-11T02:23:40.587Z,67329.53
2023-02-11T02:26:44.701Z,67337.53
2023-02-11T02:29:43.708Z,67342.06
2023-02-11T02:32:34.495Z,67351.41
2023-02-11T02:35:25.778Z,67350.47
2023-02-11T02:38:18.664Z,67347.31
2023-02-11T02:41:13.347Z,67354.06
2023-02-11T02:43:53.903Z,67361.75
2023-02-11T02:46:27.595Z,67371.09
2023-02-11T02:49:04.032Z,67371.84
2023-02-11T02:51:45.142Z,67370.16
2023-02-11T02:54:27.392Z,67370.53
2023-02-11T02:57:16.106Z,67374.09
2023-02-11T02:59:46.135Z,67383.25
2023-02-11T03:02:36.610Z,67372.63
2023-02-11T03:05:13.488Z,67387.28
2023-02-11T03:08:04.222Z,67388.38
2023-02-11T03:10:39.355Z,67388.19
2023-02-11T03:13:22.299Z,67384.09
2023-02-11T03:15:57.863Z,67385.59
2023-02-11T03:18:29.228Z,67385.59
2023-02-11T03:23:48.152Z,67381.44
2023-02-11T03:26:45.652Z,67376.38
2023-02-11T03:29:18.641Z,67373.56
2023-02-11T03:32:02.580Z,67363.97
2023-02-11T03:34:39.977Z,67351.63
2023-02-11T03:37:19.028Z,67350.69
2023-02-11T03:40:02.489Z,67347.31
2023-02-11T03:42:39.548Z,67360.25
2023-02-11T03:45:11.318Z,67369.41
2023-02-11T03:47:41.788Z,67368.84
2023-02-11T03:50:15.136Z,67369.97
2023-02-11T03:52:42.852Z,67373.69
2023-02-11T03:55:15.788Z,67371.66
2023-02-11T03:57:43.136Z,67361.94
2023-02-11T04:00:20.493Z,67375.25
2023-02-11T04:02:47.691Z,67369.25
2023-02-11T04:05:21.375Z,67367.38
2023-02-11T04:07:56.231Z,67370.38
2023-02-11T04:10:34.330Z,67372.41
2023-02-11T04:13:01.429Z,67373.19
2023-02-11T04:18:09.744Z,67371.66
2023-02-11T04:20:36.894Z,67372.41
2023-02-11T04:23:06.731Z,67375.44
2023-02-11T04:28:21.057Z,67382.19
2023-02-11T04:30:52.632Z,67382.19
2023-02-11T04:33:20.480Z,67379.38
2023-02-11T04:35:52.776Z,67381.84
2023-02-11T04:38:26.397Z,67393.81
2023-02-11T04:40:55.420Z,67388.38
2023-02-11T04:43:24.860Z,67391.34
2023-02-11T04:45:52.500Z,67391.00
2023-02-11T04:48:19.735Z,67401.47
2023-02-11T04:50:48.850Z,67400.00
2023-02-11T04:53:20.706Z,67399.66
2023-02-11T04:55:53.203Z,67395.72
2023-02-11T04:58:20.686Z,67403.38
2023-02-11T05:00:53.070Z,67400.00
2023-02-11T05:03:23.194Z,67402.06
2023-02-11T05:05:50.591Z,67399.44
2023-02-11T05:08:23.099Z,67396.84
2023-02-11T05:10:54.760Z,67393.47
2023-02-11T05:13:22.299Z,67397.97
2023-02-11T05:15:53.266Z,67398.31
2023-02-11T05:18:26.607Z,67397.75
2023-02-11T05:20:53.696Z,67400.38
2023-02-11T05:26:02.964Z,67397.75
2023-02-11T05:28:36.187Z,67397.75
2023-02-11T05:31:04.074Z,67393.47
2023-02-11T05:33:31.197Z,67394.16
2023-02-11T05:36:00.449Z,67393.03
2023-02-11T05:38:28.019Z,67394.16
2023-02-11T05:40:55.599Z,67388.38
2023-02-11T05:43:23.036Z,67393.59
2023-02-11T05:45:50.596Z,67391.56
2023-02-11T05:48:18.004Z,67391.91
2023-02-11T05:50:54.168Z,67389.53
2023-02-11T05:53:24.954Z,67388.38
2023-02-11T05:55:54.059Z,67390.44
2023-02-11T05:58:22.342Z,67394.75
2023-02-11T06:00:49.511Z,67383.34
2023-02-11T06:03:18.484Z,67387.97
2023-02-11T06:05:46.570Z,67385.72
2023-02-11T06:08:24.475Z,67385.38
2023-02-11T06:11:00.640Z,67376.56
2023-02-11T06:13:38.538Z,67374.31
2023-02-11T06:16:17.914Z,67373.19
2023-02-11T06:18:51.671Z,67370.94
2023-02-11T06:21:33.515Z,67370.16
2023-02-11T06:24:08.320Z,67371.31
2023-02-11T06:26:35.381Z,67373.78
2023-02-11T06:29:08.814Z,67380.09
2023-02-11T06:31:41.143Z,67380.50
2023-02-11T06:34:21.366Z,67382.19
2023-02-11T06:39:29.544Z,67387.84
2023-02-11T06:41:56.647Z,67382.75
2023-02-11T06:44:23.770Z,67388.94
2023-02-11T06:46:50.892Z,67397.19
2023-02-11T06:49:19.931Z,67401.69
2023-02-11T06:51:47.351Z,67403.59
2023-02-11T06:54:14.877Z,67404.72
2023-02-11T06:56:42.738Z,67406.19
2023-02-11T06:59:12.974Z,67409.22
2023-02-11T07:01:40.054Z,67411.81
2023-02-11T07:04:08.249Z,67412.38
2023-02-11T07:06:37.484Z,67409.22
2023-02-11T07:09:14.284Z,67412.03
2023-02-11T07:11:41.586Z,67415.22
2023-02-11T07:14:08.811Z,67410.34
2023-02-11T07:16:37.379Z,67415.22
2023-02-11T07:19:06.856Z,67416.31
2023-02-11T07:21:34.115Z,67410.34
2023-02-11T07:24:01.469Z,67407.34
2023-02-11T07:26:31.602Z,67398.72
2023-02-11T07:29:01.834Z,67402.63
2023-02-11T07:31:30.522Z,67392.91
2023-02-11T07:34:02.300Z,67391.78
2023-02-11T07:36:31.942Z,67393.81
2023-02-11T07:39:00.266Z,67396.44
2023-02-11T07:41:28.207Z,67390.81
2023-02-11T07:43:55.495Z,67388.75
2023-02-11T07:46:25.347Z,67383.91
2023-02-11T07:48:53.523Z,67383.91
2023-02-11T07:51:23.749Z,67384.66
2023-02-11T07:53:52.101Z,67389.53
2023-02-11T07:56:20.522Z,67390.09
2023-02-11T07:58:51.185Z,67392.31
2023-02-11T08:01:25.463Z,67398.31
2023-02-11T08:03:53.329Z,67399.78
2023-02-11T08:06:25.004Z,67403.38
2023-02-11T08:08:52.436Z,67408.81
2023-02-11T08:11:27.148Z,67411.06
2023-02-11T08:13:57.804Z,67410.91
2023-02-11T08:16:26.407Z,67412.03
2023-02-11T08:18:57.679Z,67424.19
2023-02-11T08:21:28.475Z,67432.31
2023-02-11T08:23:56.327Z,67446.53
2023-02-11T08:26:27.180Z,67446.53
2023-02-11T08:28:58.881Z,67442.44
2023-02-11T08:31:33.506Z,67445.03
2023-02-11T08:34:04.087Z,67447.50
2023-02-11T08:36:42.517Z,67458.34
2023-02-11T08:39:20.048Z,67452.00
2023-02-11T08:41:49.796Z,67455.38
2023-02-11T08:44:23.408Z,67460.25
2023-02-11T08:46:51.718Z,67459.31
2023-02-11T08:49:19.345Z,67467.56
2023-02-11T08:51:46.933Z,67468.13
2023-02-11T08:54:14.554Z,67468.13
2023-02-11T08:56:43.191Z,67467.75
2023-02-11T08:59:13.318Z,67470.59
2023-02-11T09:01:40.616Z,67474.53
2023-02-11T09:04:07.786Z,67477.34
2023-02-11T09:06:34.958Z,67480.88
2023-02-11T09:09:04.539Z,67481.63
2023-02-11T09:11:35.803Z,67488.41
2023-02-11T09:14:04.338Z,67487.50
2023-02-11T09:16:35.615Z,67485.81
2023-02-11T09:19:05.534Z,67487.84
2023-02-11T09:21:32.981Z,67485.25
2023-02-11T09:24:01.261Z,67479.81
2023-02-11T09:26:31.196Z,67481.63
2023-02-11T09:28:59.236Z,67481.63
2023-02-11T09:31:27.559Z,67473.97
2023-02-11T09:34:06.729Z,67483.13
2023-02-11T09:36:37.437Z,67488.19
2023-02-11T09:39:07.005Z,67483.13
2023-02-11T09:41:42.731Z,67483.34
2023-02-11T09:44:23.607Z,67485.03
2023-02-11T09:47:32.044Z,67483.34
2023-02-11T09:50:12.456Z,67483.13
2023-02-11T09:52:58.350Z,67483.34
2023-02-11T09:55:43.319Z,67483.91
2023-02-11T09:58:22.752Z,67485.03
2023-02-11T10:00:57.638Z,67488.59
2023-02-11T10:03:54.165Z,67498.53
2023-02-11T10:06:24.121Z,67500.66
2023-02-11T10:09:08.524Z,67513.19
2023-02-11T10:11:47.890Z,67513.56
2023-02-11T10:14:34.044Z,67514.31
2023-02-11T10:17:14.989Z,67513.19
2023-02-11T10:20:06.890Z,67517.16
2023-02-11T10:22:41.472Z,67517.16
2023-02-11T10:25:27.895Z,67521.09
2023-02-11T10:27:59.574Z,67537.22
2023-02-11T10:30:34.060Z,67546.25
2023-02-11T10:33:11.791Z,67548.91
2023-02-11T10:35:39.061Z,67552.28
2023-02-11T10:38:09.703Z,67565.03
2023-02-11T10:40:38.518Z,67564.47
2023-02-11T10:43:10.654Z,67552.28
2023-02-11T10:45:55.458Z,67554.31
2023-02-11T10:48:40.803Z,67558.28
2023-02-11T10:51:19.240Z,67566.31
2023-02-11T10:53:48.678Z,67558.47
2023-02-11T10:56:26.603Z,67562.22
2023-02-11T10:59:02.832Z,67564.47
2023-02-11T11:01:46.943Z,67571.59
2023-02-11T11:04:35.510Z,67568.63
2023-02-11T11:07:21.699Z,67571.78
2023-02-11T11:10:05.789Z,67567.13
2023-02-11T11:12:46.660Z,67572.16
2023-02-11T11:15:19.832Z,67562.22
2023-02-11T11:17:47.306Z,67557.72
2023-02-11T11:20:29.754Z,67557.16
2023-02-11T11:23:18.734Z,67558.28
2023-02-11T11:26:01.517Z,67561.09
2023-02-11T11:28:35.396Z,67560.19
2023-02-11T11:31:03.186Z,67565.59
2023-02-11T11:33:35.536Z,67563.91
2023-02-11T11:36:09.716Z,67561.28
2023-02-11T11:38:43.942Z,67570.69
2023-02-11T11:41:25.725Z,67569.75
2023-02-11T11:44:20.159Z,67569.00
2023-02-11T11:46:56.043Z,67567.28
2023-02-11T11:49:31.044Z,67566.56
2023-02-11T11:52:16.169Z,67573.13
2023-02-11T11:54:50.911Z,67575.75
2023-02-11T11:57:22.213Z,67576.31
2023-02-11T11:59:49.474Z,67574.25
2023-02-11T12:02:47.616Z,67577.66
2023-02-11T12:05:29.255Z,67577.06
2023-02-11T12:08:37.682Z,67577.78
2023-02-11T12:11:17.684Z,67580.41
2023-02-11T12:14:18.797Z,67576.31
2023-02-11T12:17:14.636Z,67574.63
2023-02-11T12:19:54.926Z,67573.13
2023-02-11T12:22:59.488Z,67576.88
2023-02-11T12:25:54.526Z,67576.88
2023-02-11T12:28:34.535Z,67578.19
2023-02-11T12:31:25.026Z,67580.81
2023-02-11T12:34:40.539Z,67579.69
2023-02-11T12:37:17.290Z,67577.66
2023-02-11T12:39:51.223Z,67581.19
2023-02-11T12:42:44.548Z,67570.50
2023-02-11T12:45:11.794Z,67572.56
2023-02-11T12:48:04.001Z,67577.78
2023-02-11T12:50:50.062Z,67573.69
2023-02-11T12:53:40.638Z,67577.44
2023-02-11T12:56:24.302Z,67579.69
2023-02-11T12:58:56.803Z,67578.00
2023-02-11T13:01:31.796Z,67577.06
2023-02-11T13:04:24.579Z,67577.66
2023-02-11T13:07:22.629Z,67580.47
2023-02-11T13:10:07.959Z,67585.53
2023-02-11T13:13:18.380Z,67583.28
2023-02-11T13:16:12.935Z,67587.00
2023-02-11T13:18:55.376Z,67582.16
2023-02-11T13:21:42.962Z,67577.06
2023-02-11T13:24:16.057Z,67576.88
2023-02-11T13:27:08.044Z,67575.38
2023-02-11T13:29:58.245Z,67581.38
2023-02-11T13:32:25.405Z,67584.22
2023-02-11T13:34:57.628Z,67586.66
2023-02-11T13:37:37.076Z,67590.97
2023-02-11T13:40:26.402Z,67589.84
2023-02-11T13:43:09.796Z,67582.34
2023-02-11T13:45:47.134Z,67586.66
2023-02-11T13:48:45.554Z,67593.22
2023-02-11T13:51:18.776Z,67591.72
2023-02-11T13:53:57.598Z,67598.09
2023-02-11T13:56:41.106Z,67592.28
2023-02-11T13:59:33.044Z,67596.22
2023-02-11T14:02:38.982Z,67604.13
2023-02-11T14:05:24.882Z,67602.44
2023-02-11T14:08:33.575Z,67609.56
2023-02-11T14:11:28.798Z,67605.44
2023-02-11T14:14:01.845Z,67613.50
2023-02-11T14:16:38.098Z,67611.47
2023-02-11T14:19:06.728Z,67621.41
2023-02-11T14:21:41.637Z,67615.97
2023-02-11T14:24:11.587Z,67621.41
2023-02-11T14:26:51.442Z,67619.34
2023-02-11T14:29:47.718Z,67622.34
2023-02-11T14:32:47.791Z,67621.78
2023-02-11T14:35:52.667Z,67617.09
2023-02-11T14:39:06.845Z,67614.63
2023-02-11T14:41:41.433Z,67617.47
2023-02-11T14:44:17.864Z,67624.59
2023-02-11T14:46:52.209Z,67614.28
2023-02-11T14:49:39.384Z,67613.50
2023-02-11T14:52:22.889Z,67607.50
2023-02-11T14:54:52.570Z,67605.25
2023-02-11T14:57:20.548Z,67606.94
2023-02-11T15:00:03.586Z,67601.50
2023-02-11T15:02:38.611Z,67605.25
2023-02-11T15:05:30.238Z,67607.50
2023-02-11T15:08:03.352Z,67610.13
2023-02-11T15:10:37.976Z,67608.06
2023-02-11T15:13:05.913Z,67608.06
2023-02-11T15:15:35.870Z,67608.84
2023-02-11T15:18:09.629Z,67616.13
2023-02-11T15:20:41.148Z,67610.91
2023-02-11T15:23:22.376Z,67609.22
2023-02-11T15:25:55.899Z,67603.78
2023-02-11T15:28:29.196Z,67611.63
2023-02-11T15:31:04.983Z,67614.44
2023-02-11T15:33:34.786Z,67612.59
2023-02-11T15:36:05.537Z,67616.53
2023-02-11T15:38:38.452Z,67614.06
2023-02-11T15:41:07.527Z,67615.97
2023-02-11T15:43:48.398Z,67613.72
2023-02-11T15:46:23.539Z,67608.47
2023-02-11T15:48:54.802Z,67615.41
2023-02-11T15:51:38.675Z,67616.53
2023-02-11T15:54:21.912Z,67616.31
2023-02-11T15:56:55.454Z,67617.09
2023-02-11T15:59:30.609Z,67623.28
2023-02-11T16:02:06.908Z,67623.88
2023-02-11T16:04:34.611Z,67622.75
2023-02-11T16:07:01.725Z,67626.50
2023-02-11T16:09:35.181Z,67622.94
2023-02-11T16:12:27.194Z,67627.59
2023-02-11T16:14:55.852Z,67631.00
2023-02-11T16:17:28.960Z,67620.47
2023-02-11T16:19:56.294Z,67618.78
2023-02-11T16:22:27.364Z,67609.75
2023-02-11T16:24:59.223Z,67611.06
2023-02-11T16:27:40.987Z,67609.56
2023-02-11T16:30:26.555Z,67602.66
2023-02-11T16:32:54.281Z,67600.75
2023-02-11T16:35:21.469Z,67601.09
2023-02-11T16:37:48.636Z,67587.97
2023-02-11T16:40:15.822Z,67587.56
2023-02-11T16:42:42.908Z,67575.94
2023-02-11T16:45:10.094Z,67574.03
2023-02-11T16:47:40.927Z,67563.19
2023-02-11T16:50:10.832Z,67562.97
2023-02-11T16:52:38.067Z,67562.22
2023-02-11T16:55:06.113Z,67554.31
2023-02-11T16:57:33.202Z,67545.72
2023-02-11T17:00:06.359Z,67541.00
2023-02-11T17:02:37.095Z,67539.88
2023-02-11T17:05:14.765Z,67542.50
2023-02-11T17:07:44.365Z,67540.44
2023-02-11T17:10:19.668Z,67529.38
2023-02-11T17:12:53.809Z,67532.00
2023-02-11T17:15:20.838Z,67531.44
2023-02-11T17:17:48.179Z,67534.06
2023-02-11T17:20:15.935Z,67532.91
2023-02-11T17:22:43.036Z,67527.69
2023-02-11T17:25:10.578Z,67529.16
2023-02-11T17:27:37.816Z,67539.09
2023-02-11T17:30:05.826Z,67528.81
2023-02-11T17:32:33.428Z,67537.78
2023-02-11T17:35:08.495Z,67535.53
2023-02-11T17:37:39.421Z,67530.84
2023-02-11T17:40:07.977Z,67541.72
2023-02-11T17:42:35.015Z,67533.09
2023-02-11T17:45:02.194Z,67534.81
2023-02-11T17:47:30.366Z,67532.56
2023-02-11T17:49:57.708Z,67531.44
2023-02-11T17:52:28.459Z,67529.16
2023-02-11T17:54:58.957Z,67527.13
2023-02-11T17:57:26.574Z,67532.56
2023-02-11T17:59:56.792Z,67534.59
2023-02-11T18:02:23.915Z,67539.09
2023-02-11T18:04:52.362Z,67536.31
2023-02-11T18:07:20.045Z,67533.09
2023-02-11T18:09:47.193Z,67535.16
2023-02-11T18:12:14.324Z,67528.41
2023-02-11T18:14:41.557Z,67532.00
2023-02-11T18:17:09.212Z,67533.84
2023-02-11T18:19:37.570Z,67533.28
2023-02-11T18:22:04.747Z,67529.16
2023-02-11T18:24:31.973Z,67532.00
2023-02-11T18:26:59.103Z,67537.41
2023-02-11T18:29:26.544Z,67536.84
2023-02-11T18:31:57.625Z,67533.69
2023-02-11T18:34:26.088Z,67536.84
2023-02-11T18:37:04.098Z,67541.72
2023-02-11T18:39:31.817Z,67537.63
2023-02-11T18:41:59.772Z,67543.81
2023-02-11T18:44:27.412Z,67536.50
2023-02-11T18:46:55.086Z,67535.38
2023-02-11T18:49:22.306Z,67537.63
2023-02-11T18:51:49.571Z,67540.25
2023-02-11T18:54:16.900Z,67532.97
2023-02-11T18:56:43.979Z,67545.31
2023-02-11T18:59:11.601Z,67545.50
2023-02-11T19:01:40.761Z,67542.13
2023-02-11T19:04:08.077Z,67543.25
2023-02-11T19:06:36.972Z,67541.94
2023-02-11T19:09:09.935Z,67543.81
2023-02-11T19:11:49.836Z,67550.38
2023-02-11T19:14:27.904Z,67548.69
2023-02-11T19:16:57.570Z,67553.22
2023-02-11T19:19:28.632Z,67558.28
2023-02-11T19:21:56.992Z,67553.97
2023-02-11T19:24:24.822Z,67556.03
2023-02-11T19:26:58.171Z,67554.38
2023-02-11T19:29:27.389Z,67561.28
2023-02-11T19:31:55.174Z,67562.22
2023-02-11T19:34:22.381Z,67557.34
2023-02-11T19:36:50.578Z,67561.28
2023-02-11T19:39:18.582Z,67561.84
2023-02-11T19:41:46.159Z,67565.03
2023-02-11T19:44:14.342Z,67563.34
2023-02-11T19:46:41.661Z,67560.72
2023-02-11T19:49:10.042Z,67568.41
2023-02-11T19:51:39.791Z,67562.44
2023-02-11T19:54:08.152Z,67559.59
2023-02-11T19:56:44.941Z,67565.03
2023-02-11T19:59:12.481Z,67559.81
2023-02-11T20:01:42.570Z,67568.63
2023-02-11T20:04:10.736Z,67563.53
2023-02-11T20:06:38.906Z,67561.84
2023-02-11T20:09:10.050Z,67570.69
2023-02-11T20:11:37.682Z,67568.41
2023-02-11T20:14:12.254Z,67569.00
2023-02-11T20:16:48.199Z,67565.78
2023-02-11T20:19:22.989Z,67564.69
2023-02-11T20:21:53.142Z,67570.88
2023-02-11T20:24:23.326Z,67571.25
2023-02-11T20:26:56.132Z,67570.88
2023-02-11T20:29:29.676Z,67570.69
2023-02-11T20:31:57.040Z,67566.94
2023-02-11T20:34:29.173Z,67570.31
2023-02-11T20:37:01.909Z,67570.31
2023-02-11T20:39:29.910Z,67570.31
2023-02-11T20:41:58.110Z,67566.94
2023-02-11T20:44:28.051Z,67567.28
2023-02-11T20:46:55.555Z,67563.19
2023-02-11T20:49:24.663Z,67565.78
2023-02-11T20:51:53.785Z,67569.53
2023-02-11T20:54:23.406Z,67563.53
2023-02-11T20:56:51.494Z,67569.00
2023-02-11T20:59:20.801Z,67565.78
2023-02-11T21:01:52.805Z,67567.84
2023-02-11T21:04:23.472Z,67569.53
2023-02-11T21:06:53.296Z,67559.81
2023-02-11T21:09:24.018Z,67569.34
2023-02-11T21:11:55.248Z,67572.16
2023-02-11T21:14:32.218Z,67573.50
2023-02-11T21:16:59.531Z,67570.50
2023-02-11T21:19:26.760Z,67570.31
2023-02-11T21:21:55.159Z,67570.31
2023-02-11T21:24:25.369Z,67576.31
2023-02-11T21:26:52.464Z,67581.75
2023-02-11T21:29:19.586Z,67575.94
2023-02-11T21:31:51.510Z,67575.22
2023-02-11T21:34:40.662Z,67581.59
2023-02-11T21:37:07.826Z,67571.66
2023-02-11T21:39:35.046Z,67577.06
2023-02-11T21:42:02.083Z,67579.69
2023-02-11T21:44:29.156Z,67577.84
2023-02-11T21:46:58.669Z,67584.00
2023-02-11T21:49:25.968Z,67579.13
2023-02-11T21:54:34.123Z,67584.75
2023-02-11T21:57:03.143Z,67584.56
2023-02-11T21:59:31.947Z,67586.59
2023-02-11T22:02:01.886Z,67583.84
2023-02-11T22:04:29.024Z,67582.16
2023-02-11T22:06:56.181Z,67584.97
2023-02-11T22:09:23.211Z,67590.41
2023-02-11T22:11:50.684Z,67583.28
2023-02-11T22:14:17.741Z,67593.78
2023-02-11T22:16:48.573Z,67594.34
2023-02-11T22:19:24.183Z,67590.97
2023-02-11T22:21:51.276Z,67589.84
2023-02-11T22:24:18.402Z,67593.56
2023-02-11T22:26:45.455Z,67590.59
2023-02-11T22:29:15.175Z,67587.22
2023-02-11T22:31:42.404Z,67589.84
2023-02-11T22:34:13.700Z,67584.97
2023-02-11T22:36:41.642Z,67589.47
2023-02-11T22:39:10.926Z,67596.97
2023-02-11T22:41:38.627Z,67595.47
2023-02-11T22:44:05.642Z,67586.28
2023-02-11T22:46:32.663Z,67590.03
2023-02-11T22:49:02.222Z,67590.81
2023-02-11T22:51:33.250Z,67592.66
2023-02-11T22:54:05.502Z,67595.69
2023-02-11T22:56:34.042Z,67598.66
2023-02-11T22:59:12.340Z,67591.94
2023-02-11T23:01:42.039Z,67597.16
2023-02-11T23:04:12.456Z,67601.28
2023-02-11T23:06:40.008Z,67604.50
2023-02-11T23:09:09.409Z,67598.13
2023-02-11T23:11:36.584Z,67598.28
2023-02-11T23:14:03.646Z,67600.91
2023-02-11T23:16:33.025Z,67595.13
2023-02-11T23:19:06.440Z,67597.16
2023-02-11T23:21:36.375Z,67591.38
2023-02-11T23:24:09.091Z,67595.47
2023-02-11T23:26:45.095Z,67593.97
2023-02-11T23:29:12.590Z,67585.72
2023-02-11T23:31:45.186Z,67590.97
2023-02-11T23:34:17.147Z,67597.16
2023-02-11T23:36:44.479Z,67597.38
2023-02-11T23:39:17.640Z,67595.47
2023-02-11T23:41:47.986Z,67596.59
2023-02-11T23:44:17.498Z,67591.72
2023-02-11T23:46:44.626Z,67599.78
2023-02-11T23:49:11.681Z,67596.22
2023-02-11T23:51:38.839Z,67601.09
2023-02-11T23:54:11.816Z,67598.84
2023-02-11T23:56:39.077Z,67597.72
2023-02-11T23:59:11.714Z,67599.97
